Weather History for Nebraska City, NE

Change the Weather History Date:

Friday, May 2, 2014

  Actual Average (KSDA) Record (KSDA)
Temperature  
Mean Temperature 55 °F -  
Max Temperature 73 °F 70 °F 91 °F (1968)
Min Temperature 37 °F 43 °F 26 °F (1961)
Degree Days  
Heating Degree Days 10    
Growing Degree Days 5 (Base 50)    
Moisture  
Dew Point 37 °F    
Average Humidity 55    
Maximum Humidity 88    
Minimum Humidity 23    
Precipitation  
Precipitation 0.00 in - - ()
Sea Level Pressure  
Sea Level Pressure 29.87 in    
Wind  
Wind Speed 10 mph (WNW)    
Max Wind Speed 20 mph    
Max Gust Speed 26 mph    
Visibility 10 miles    
Events      
Averages and records for this station are not official NWS values.
T = Trace of Precipitation, MM = Missing Value Source: NWS Daily Summary

Daily Weather History Graph

Daily Weather History Graph

Search for Another Location

Airport:

Trip Planner

Search our weather history database for the weather conditions in past years. The results will help you decide how hot, cold, wet, or windy it might be!

Date:

Astronomy

May. 02, 2014 Rise Set
Actual Time 6:21 AM CDT 8:20 PM CDT
Civil Twilight 5:51 AM CDT 8:50 PM CDT
Nautical Twilight 5:14 AM CDT 9:26 PM CDT
Astronomical Twilight 4:35 AM CDT 10:06 PM CDT
Moon 8:58 AM CDT (5/2) 11:43 PM CDT (5/2)
Length of Visible Light 14h 59m
Length of Day
13h 59m
Waxing Crescent, 12% of the Moon is Illuminated
May 2
Waxing Crescent
May 6
First Quarter
May 14
Full
May 21
Last Quarter
May 28
New

Hourly Weather History & Observations

Time (CDT) Temp. Windchill Dew Point Humidity Pressure Visibility Wind Dir Wind Speed Gust Speed Precip Events Conditions
12:15 AM 44.6 °F 40.7 °F 38.3 °F 79% 29.98 in 10.0 mi West 6.9 mph - N/A   Overcast
12:35 AM 44.1 °F 40.1 °F 37.8 °F 78% 29.98 in 10.0 mi West 6.9 mph - N/A   Mostly Cloudy
12:55 AM 43.0 °F 38.2 °F 37.6 °F 81% 29.98 in 10.0 mi West 8.1 mph - N/A   Clear
1:15 AM 42.8 °F 37.5 °F 37.4 °F 81% 29.98 in 10.0 mi West 9.2 mph - N/A   Clear
1:35 AM 42.4 °F 37.0 °F 37.4 °F 82% 29.97 in 10.0 mi West 9.2 mph - N/A   Clear
1:55 AM 42.1 °F 36.1 °F 37.4 °F 83% 29.97 in 10.0 mi West 10.4 mph - N/A   Clear
2:15 AM 41.4 °F 35.7 °F 37.0 °F 85% 29.97 in 10.0 mi WSW 9.2 mph - N/A   Clear
2:35 AM 40.8 °F 35.0 °F 36.9 °F 86% 29.97 in 10.0 mi WSW 9.2 mph - N/A   Clear
2:55 AM 41.0 °F 35.2 °F 36.5 °F 84% 29.96 in 10.0 mi West 9.2 mph - N/A   Clear
3:15 AM 40.5 °F 34.6 °F 36.3 °F 85% 29.96 in 10.0 mi WSW 9.2 mph - N/A   Clear
3:35 AM 40.1 °F 34.1 °F 36.1 °F 86% 29.96 in 10.0 mi West 9.2 mph - N/A   Clear
3:55 AM 39.6 °F 33.5 °F 36.0 °F 87% 29.96 in 10.0 mi West 9.2 mph - N/A   Clear
4:15 AM 39.4 °F 33.2 °F 35.8 °F 87% 29.95 in 10.0 mi West 9.2 mph - N/A   Clear
4:35 AM 39.2 °F 32.5 °F 35.8 °F 88% 29.95 in 10.0 mi West 10.4 mph - N/A   Clear
4:55 AM 39.0 °F 32.8 °F 35.6 °F 88% 29.94 in 10.0 mi West 9.2 mph - N/A   Clear
5:15 AM 38.7 °F 32.9 °F 35.1 °F 87% 29.94 in 10.0 mi West 8.1 mph - N/A   Clear
5:35 AM 38.3 °F 31.4 °F 34.9 °F 87% 29.94 in 10.0 mi West 10.4 mph - N/A   Clear
5:55 AM 38.3 °F 31.9 °F 34.7 °F 87% 29.94 in 10.0 mi West 9.2 mph - N/A   Clear
6:15 AM 37.9 °F 30.9 °F 34.3 °F 87% 29.93 in 10.0 mi West 10.4 mph - N/A   Clear
6:35 AM 37.9 °F 30.9 °F 34.3 °F 87% 29.93 in 10.0 mi West 10.4 mph - N/A   Clear
6:55 AM 38.7 °F 31.8 °F 34.7 °F 86% 29.93 in 10.0 mi WSW 10.4 mph - N/A   Clear
7:15 AM 39.9 °F 32.9 °F 35.2 °F 83% 29.93 in 10.0 mi WSW 11.5 mph - N/A   Clear
7:35 AM 41.0 °F 33.9 °F 35.6 °F 81% 29.93 in 10.0 mi West 12.7 mph - N/A   Clear
7:55 AM 42.8 °F 36.6 °F 35.8 °F 76% 29.93 in 10.0 mi West 11.5 mph - N/A   Clear
8:15 AM 43.7 °F 36.6 °F 36.5 °F 76% 29.92 in 10.0 mi West 15.0 mph - N/A   Clear
8:35 AM 45.0 °F 38.9 °F 36.5 °F 72% 29.92 in 10.0 mi West 12.7 mph - N/A   Clear
8:55 AM 47.3 °F - 37.4 °F 68% 29.92 in 10.0 mi West 13.8 mph - N/A   Clear
9:15 AM 50.0 °F - 38.3 °F 64% 29.91 in 10.0 mi West 10.4 mph - N/A   Clear
9:35 AM 52.9 °F - 38.5 °F 58% 29.91 in 10.0 mi West 10.4 mph - N/A   Clear
9:55 AM 54.7 °F - 37.4 °F 52% 29.90 in 10.0 mi West 13.8 mph - N/A   Clear
10:15 AM 56.8 °F - 37.2 °F 48% 29.89 in 10.0 mi West 10.4 mph - N/A   Clear
10:35 AM 58.5 °F - 37.9 °F 46% 29.89 in 10.0 mi WSW 15.0 mph - N/A   Clear
10:55 AM 59.9 °F - 36.9 °F 42% 29.89 in 10.0 mi West 12.7 mph - N/A   Clear
11:15 AM 61.9 °F - 34.3 °F 36% 29.89 in 10.0 mi West 15.0 mph 21.9 mph N/A   Clear
11:35 AM 63.3 °F - 32.9 °F 32% 29.88 in 10.0 mi West 19.6 mph 24.2 mph N/A   Clear
11:55 AM 64.4 °F - 34.3 °F 33% 29.88 in 10.0 mi West 18.4 mph 25.3 mph N/A   Clear
12:15 PM 64.6 °F - 33.6 °F 32% 29.87 in 10.0 mi West 17.3 mph 20.7 mph N/A   Clear
12:35 PM 65.5 °F - 33.1 °F 30% 29.86 in 10.0 mi West 17.3 mph 24.2 mph N/A   Clear
12:55 PM 66.4 °F - 32.0 °F 28% 29.85 in 10.0 mi West 13.8 mph 23.0 mph N/A   Scattered Clouds
1:15 PM 68.0 °F - 34.2 °F 29% 29.84 in 10.0 mi WSW 15.0 mph 19.6 mph N/A   Scattered Clouds
1:35 PM 68.4 °F - 32.9 °F 27% 29.83 in 10.0 mi WSW 17.3 mph 21.9 mph N/A   Clear
1:55 PM 69.1 °F - 32.4 °F 26% 29.82 in 10.0 mi WSW 15.0 mph 19.6 mph N/A   Clear
2:15 PM 70.3 °F - 33.1 °F 25% 29.82 in 10.0 mi WSW 17.3 mph 21.9 mph N/A   Scattered Clouds
2:35 PM 70.2 °F - 32.9 °F 25% 29.81 in 10.0 mi West 15.0 mph 24.2 mph N/A   Scattered Clouds
2:55 PM 71.1 °F - 33.1 °F 25% 29.79 in 10.0 mi West 15.0 mph 26.5 mph N/A   Mostly Cloudy
3:15 PM 72.0 °F - 32.9 °F 24% 29.79 in 10.0 mi West 18.4 mph 26.5 mph N/A   Scattered Clouds
3:35 PM 72.7 °F - 33.6 °F 24% 29.79 in 10.0 mi West 12.7 mph 21.9 mph N/A   Scattered Clouds
3:55 PM 73.0 °F - 33.4 °F 23% 29.78 in 10.0 mi West 15.0 mph 26.5 mph N/A   Scattered Clouds
4:15 PM 72.5 °F - 33.8 °F 24% 29.78 in 10.0 mi WNW 18.4 mph 24.2 mph N/A   Scattered Clouds
4:35 PM 72.5 °F - 34.2 °F 25% 29.78 in 10.0 mi WNW 16.1 mph 25.3 mph N/A   Mostly Cloudy
4:55 PM 71.6 °F - 34.5 °F 26% 29.78 in 10.0 mi West 15.0 mph 24.2 mph N/A   Mostly Cloudy
5:15 PM 71.8 °F - 35.4 °F 26% 29.77 in 10.0 mi West 13.8 mph - N/A   Mostly Cloudy
5:35 PM 70.7 °F - 36.0 °F 28% 29.77 in 10.0 mi NNW 12.7 mph 17.3 mph N/A   Overcast
5:55 PM 69.3 °F - 37.6 °F 31% 29.77 in 10.0 mi North 9.2 mph - N/A   Mostly Cloudy
6:15 PM 68.5 °F - 38.1 °F 33% 29.77 in 10.0 mi North 8.1 mph - N/A   Overcast
6:35 PM 67.5 °F - 38.8 °F 35% 29.77 in 10.0 mi NNW 8.1 mph - N/A   Overcast
6:55 PM 66.4 °F - 39.9 °F 38% 29.77 in 10.0 mi NNW 5.8 mph - N/A   Overcast
7:15 PM 66.2 °F - 39.7 °F 38% 29.77 in 10.0 mi NNW 9.2 mph - N/A   Overcast
7:35 PM 65.3 °F - 41.0 °F 41% 29.78 in 10.0 mi North 9.2 mph - N/A   Overcast
7:55 PM 64.4 °F - 41.2 °F 43% 29.79 in 10.0 mi North 12.7 mph - N/A   Overcast
8:15 PM 63.5 °F - 40.8 °F 43% 29.81 in 10.0 mi North 13.8 mph 17.3 mph N/A   Overcast
8:35 PM 62.6 °F - 41.2 °F 45% 29.81 in 10.0 mi North 11.5 mph - N/A   Overcast
8:55 PM 61.9 °F - 41.2 °F 47% 29.80 in 10.0 mi North 9.2 mph - N/A   Overcast
9:15 PM 61.3 °F - 41.0 °F 47% 29.81 in 10.0 mi North 8.1 mph - N/A   Overcast
9:35 PM 60.6 °F - 41.4 °F 49% 29.82 in 10.0 mi North 6.9 mph - N/A   Overcast
9:55 PM 60.6 °F - 41.0 °F 48% 29.83 in 10.0 mi North 8.1 mph - N/A   Overcast
10:15 PM 60.4 °F - 39.9 °F 47% 29.83 in 10.0 mi NNW 6.9 mph - N/A   Overcast
10:35 PM 59.7 °F - 40.3 °F 49% 29.84 in 10.0 mi NNW 8.1 mph - N/A   Overcast
10:55 PM 59.0 °F - 41.0 °F 51% 29.84 in 10.0 mi NNW 6.9 mph - N/A   Overcast
11:15 PM 59.0 °F - 40.6 °F 51% 29.84 in 10.0 mi NNW 4.6 mph - N/A   Overcast
11:35 PM 56.7 °F - 43.5 °F 61% 29.84 in 10.0 mi NW 4.6 mph - N/A   Overcast
11:55 PM 57.6 °F - 41.7 °F 56% 29.84 in 10.0 mi North 8.1 mph - N/A   Overcast